ETOU

Wiesbaden Army Airfield Airport

Wiesbaden, Germany
METAR ETOU 211456Z AUTO 28003KT 9999 CLR 27/11 A3006 RMK AO2 SLP177 T02690110 57016 $
Observed Flight Rules
Apr-21 @ 14:56 UTC (39 minutes ago) Visual Flight Rules
Wind Visibility Clouds
280° at 3 knots 10,000+ meters
  • Clear skies
Temperatures Readings
Current 27°C / 81°F
Dewpoint 11°C / 52°F
Humidity 37%
Altimeter 30.06" Hg
Pressure 1017.7 hPa
Elevation 141
METAR ETOU 211456Z AUTO 28003KT 9999 CLR 27/11 A3006 RMK AO2 SLP177 T02690110 57016 $
Observed Flight Rules
Apr-21 @ 14:56 UTC
(39 minutes ago)
VFR
Wind Visibility
280° at 3 knots 10,000+ meters
Clouds
  • Clear skies
Temperature Dewpoint
27°C / 81°F 11°C / 52°F
Humidity Altimeter Pressure
37% 30.06" Hg 1017.7 hPa